sensor_id;sensor_type;location;lat;lon;timestamp;P1;durP1;ratioP1;P2;durP2;ratioP2
20627;SDS011;10473;42.734;24.258;2022-10-17T00:00:10;0.77;;;0.50;;
20627;SDS011;10473;42.734;24.258;2022-10-17T00:02:38;0.27;;;0.20;;
20627;SDS011;10473;42.734;24.258;2022-10-17T00:05:06;0.20;;;0.20;;
20627;SDS011;10473;42.734;24.258;2022-10-17T00:07:35;0.30;;;0.10;;
20627;SDS011;10473;42.734;24.258;2022-10-17T00:10:05;0.47;;;0.40;;
20627;SDS011;10473;42.734;24.258;2022-10-17T00:12:33;0.40;;;0.30;;
20627;SDS011;10473;42.734;24.258;2022-10-17T00:15:02;0.30;;;0.20;;
20627;SDS011;10473;42.734;24.258;2022-10-17T00:17:31;0.70;;;0.40;;
20627;SDS011;10473;42.734;24.258;2022-10-17T00:19:59;0.63;;;0.30;;
20627;SDS011;10473;42.734;24.258;2022-10-17T00:22:27;0.43;;;0.37;;
20627;SDS011;10473;42.734;24.258;2022-10-17T00:24:56;0.57;;;0.40;;
20627;SDS011;10473;42.734;24.258;2022-10-17T00:27:25;0.43;;;0.30;;
20627;SDS011;10473;42.734;24.258;2022-10-17T00:29:53;0.83;;;0.30;;
20627;SDS011;10473;42.734;24.258;2022-10-17T00:32:21;0.20;;;0.20;;
20627;SDS011;10473;42.734;24.258;2022-10-17T00:34:49;0.30;;;0.30;;
20627;SDS011;10473;42.734;24.258;2022-10-17T00:37:17;0.60;;;0.60;;
20627;SDS011;10473;42.734;24.258;2022-10-17T00:39:45;0.57;;;0.40;;
20627;SDS011;10473;42.734;24.258;2022-10-17T00:42:12;0.40;;;0.30;;
20627;SDS011;10473;42.734;24.258;2022-10-17T00:45:02;0.57;;;0.47;;
20627;SDS011;10473;42.734;24.258;2022-10-17T00:47:42;0.70;;;0.40;;
20627;SDS011;10473;42.734;24.258;2022-10-17T00:50:13;0.57;;;0.40;;
20627;SDS011;10473;42.734;24.258;2022-10-17T00:52:41;0.27;;;0.27;;
20627;SDS011;10473;42.734;24.258;2022-10-17T00:55:11;0.80;;;0.30;;
20627;SDS011;10473;42.734;24.258;2022-10-17T00:57:42;0.80;;;0.27;;
20627;SDS011;10473;42.734;24.258;2022-10-17T01:00:15;0.57;;;0.37;;
20627;SDS011;10473;42.734;24.258;2022-10-17T01:02:44;0.70;;;0.37;;
20627;SDS011;10473;42.734;24.258;2022-10-17T01:05:14;0.27;;;0.27;;
20627;SDS011;10473;42.734;24.258;2022-10-17T01:07:43;0.50;;;0.43;;
20627;SDS011;10473;42.734;24.258;2022-10-17T01:10:12;0.43;;;0.43;;
20627;SDS011;10473;42.734;24.258;2022-10-17T01:12:44;0.53;;;0.30;;
20627;SDS011;10473;42.734;24.258;2022-10-17T01:15:28;1.00;;;0.87;;
20627;SDS011;10473;42.734;24.258;2022-10-17T01:18:13;1.30;;;1.13;;
20627;SDS011;10473;42.734;24.258;2022-10-17T01:20:59;0.43;;;0.43;;
20627;SDS011;10473;42.734;24.258;2022-10-17T01:27:08;0.40;;;0.37;;
20627;SDS011;10473;42.734;24.258;2022-10-17T01:29:53;0.17;;;0.17;;
20627;SDS011;10473;42.734;24.258;2022-10-17T01:32:33;0.20;;;0.20;;
20627;SDS011;10473;42.734;24.258;2022-10-17T01:35:05;0.30;;;0.30;;
20627;SDS011;10473;42.734;24.258;2022-10-17T01:37:39;0.23;;;0.17;;
20627;SDS011;10473;42.734;24.258;2022-10-17T01:40:14;0.60;;;0.40;;
20627;SDS011;10473;42.734;24.258;2022-10-17T01:42:52;0.73;;;0.57;;
20627;SDS011;10473;42.734;24.258;2022-10-17T01:45:24;2.70;;;0.83;;
20627;SDS011;10473;42.734;24.258;2022-10-17T01:48:02;1.33;;;0.60;;
20627;SDS011;10473;42.734;24.258;2022-10-17T01:50:36;1.13;;;1.00;;
20627;SDS011;10473;42.734;24.258;2022-10-17T01:53:09;0.83;;;0.63;;
20627;SDS011;10473;42.734;24.258;2022-10-17T01:55:41;2.63;;;1.53;;
20627;SDS011;10473;42.734;24.258;2022-10-17T01:58:12;1.97;;;1.30;;
20627;SDS011;10473;42.734;24.258;2022-10-17T02:00:46;1.43;;;1.20;;
20627;SDS011;10473;42.734;24.258;2022-10-17T02:03:18;1.50;;;0.83;;
20627;SDS011;10473;42.734;24.258;2022-10-17T02:05:47;0.30;;;0.30;;
20627;SDS011;10473;42.734;24.258;2022-10-17T02:08:23;0.60;;;0.60;;
20627;SDS011;10473;42.734;24.258;2022-10-17T02:10:54;0.57;;;0.30;;
20627;SDS011;10473;42.734;24.258;2022-10-17T02:13:30;0.37;;;0.30;;
20627;SDS011;10473;42.734;24.258;2022-10-17T02:16:11;0.37;;;0.37;;
20627;SDS011;10473;42.734;24.258;2022-10-17T02:18:52;0.43;;;0.40;;
20627;SDS011;10473;42.734;24.258;2022-10-17T02:21:35;0.80;;;0.80;;
20627;SDS011;10473;42.734;24.258;2022-10-17T02:24:15;0.40;;;0.40;;
20627;SDS011;10473;42.734;24.258;2022-10-17T02:26:51;1.93;;;1.47;;
20627;SDS011;10473;42.734;24.258;2022-10-17T02:29:27;7.73;;;2.70;;
20627;SDS011;10473;42.734;24.258;2022-10-17T02:32:01;2.13;;;1.13;;
20627;SDS011;10473;42.734;24.258;2022-10-17T02:34:36;1.77;;;0.90;;
20627;SDS011;10473;42.734;24.258;2022-10-17T02:37:08;1.17;;;1.07;;
20627;SDS011;10473;42.734;24.258;2022-10-17T02:39:39;0.87;;;0.77;;
20627;SDS011;10473;42.734;24.258;2022-10-17T02:42:11;0.70;;;0.67;;
20627;SDS011;10473;42.734;24.258;2022-10-17T02:44:40;1.07;;;0.77;;
20627;SDS011;10473;42.734;24.258;2022-10-17T02:47:15;1.50;;;0.43;;
20627;SDS011;10473;42.734;24.258;2022-10-17T02:49:50;0.30;;;0.30;;
20627;SDS011;10473;42.734;24.258;2022-10-17T02:52:21;2.00;;;0.53;;
20627;SDS011;10473;42.734;24.258;2022-10-17T02:54:56;0.93;;;0.77;;
20627;SDS011;10473;42.734;24.258;2022-10-17T02:57:29;0.30;;;0.30;;
20627;SDS011;10473;42.734;24.258;2022-10-17T03:00:00;1.20;;;0.77;;
20627;SDS011;10473;42.734;24.258;2022-10-17T03:02:36;0.80;;;0.80;;
20627;SDS011;10473;42.734;24.258;2022-10-17T03:05:08;1.20;;;0.60;;
20627;SDS011;10473;42.734;24.258;2022-10-17T03:07:38;0.50;;;0.50;;
20627;SDS011;10473;42.734;24.258;2022-10-17T03:10:06;1.27;;;1.17;;
20627;SDS011;10473;42.734;24.258;2022-10-17T03:12:34;1.00;;;0.80;;
20627;SDS011;10473;42.734;24.258;2022-10-17T03:15:05;0.43;;;0.33;;
20627;SDS011;10473;42.734;24.258;2022-10-17T03:17:34;2.00;;;1.00;;
20627;SDS011;10473;42.734;24.258;2022-10-17T03:20:02;0.70;;;0.60;;
20627;SDS011;10473;42.734;24.258;2022-10-17T03:22:32;1.50;;;0.83;;
20627;SDS011;10473;42.734;24.258;2022-10-17T03:25:02;1.10;;;1.00;;
20627;SDS011;10473;42.734;24.258;2022-10-17T03:27:33;0.90;;;0.70;;
20627;SDS011;10473;42.734;24.258;2022-10-17T03:30:01;1.03;;;0.70;;
20627;SDS011;10473;42.734;24.258;2022-10-17T03:32:31;1.27;;;1.03;;
20627;SDS011;10473;42.734;24.258;2022-10-17T03:34:59;0.80;;;0.40;;
20627;SDS011;10473;42.734;24.258;2022-10-17T03:37:27;1.27;;;0.80;;
20627;SDS011;10473;42.734;24.258;2022-10-17T03:39:56;0.53;;;0.50;;
20627;SDS011;10473;42.734;24.258;2022-10-17T03:42:24;0.40;;;0.40;;
20627;SDS011;10473;42.734;24.258;2022-10-17T03:44:52;1.13;;;0.70;;
20627;SDS011;10473;42.734;24.258;2022-10-17T03:47:21;0.67;;;0.47;;
20627;SDS011;10473;42.734;24.258;2022-10-17T03:49:49;2.30;;;0.77;;
20627;SDS011;10473;42.734;24.258;2022-10-17T03:52:19;0.40;;;0.40;;
20627;SDS011;10473;42.734;24.258;2022-10-17T03:54:48;0.70;;;0.70;;
20627;SDS011;10473;42.734;24.258;2022-10-17T03:57:18;1.03;;;0.70;;
20627;SDS011;10473;42.734;24.258;2022-10-17T03:59:46;1.63;;;0.53;;
20627;SDS011;10473;42.734;24.258;2022-10-17T04:02:18;0.77;;;0.70;;
20627;SDS011;10473;42.734;24.258;2022-10-17T04:04:46;1.00;;;0.80;;
20627;SDS011;10473;42.734;24.258;2022-10-17T04:07:14;0.80;;;0.50;;
20627;SDS011;10473;42.734;24.258;2022-10-17T04:09:44;6.77;;;1.53;;
20627;SDS011;10473;42.734;24.258;2022-10-17T04:12:18;1.00;;;0.90;;
20627;SDS011;10473;42.734;24.258;2022-10-17T04:14:46;1.03;;;0.93;;
20627;SDS011;10473;42.734;24.258;2022-10-17T04:17:15;1.70;;;1.27;;
20627;SDS011;10473;42.734;24.258;2022-10-17T04:19:44;1.30;;;1.20;;
20627;SDS011;10473;42.734;24.258;2022-10-17T04:22:13;2.90;;;1.77;;
20627;SDS011;10473;42.734;24.258;2022-10-17T04:24:41;2.23;;;1.43;;
20627;SDS011;10473;42.734;24.258;2022-10-17T04:27:24;1.07;;;0.80;;
20627;SDS011;10473;42.734;24.258;2022-10-17T04:29:53;1.73;;;0.83;;
20627;SDS011;10473;42.734;24.258;2022-10-17T04:32:23;0.50;;;0.50;;
20627;SDS011;10473;42.734;24.258;2022-10-17T04:35:07;1.73;;;1.63;;
20627;SDS011;10473;42.734;24.258;2022-10-17T04:37:38;4.27;;;1.13;;
20627;SDS011;10473;42.734;24.258;2022-10-17T04:40:12;1.90;;;1.60;;
20627;SDS011;10473;42.734;24.258;2022-10-17T04:42:42;2.07;;;1.83;;
20627;SDS011;10473;42.734;24.258;2022-10-17T04:45:12;3.57;;;1.47;;
20627;SDS011;10473;42.734;24.258;2022-10-17T04:47:41;2.43;;;2.07;;
20627;SDS011;10473;42.734;24.258;2022-10-17T04:50:09;9.73;;;6.53;;
20627;SDS011;10473;42.734;24.258;2022-10-17T04:52:39;20.10;;;10.67;;
20627;SDS011;10473;42.734;24.258;2022-10-17T04:55:10;4.30;;;3.03;;
20627;SDS011;10473;42.734;24.258;2022-10-17T04:57:37;3.70;;;2.73;;
20627;SDS011;10473;42.734;24.258;2022-10-17T05:00:21;3.10;;;2.20;;
20627;SDS011;10473;42.734;24.258;2022-10-17T05:02:49;6.17;;;2.70;;
20627;SDS011;10473;42.734;24.258;2022-10-17T05:05:16;4.37;;;2.27;;
20627;SDS011;10473;42.734;24.258;2022-10-17T05:07:46;3.43;;;1.97;;
20627;SDS011;10473;42.734;24.258;2022-10-17T05:10:19;2.10;;;1.90;;
20627;SDS011;10473;42.734;24.258;2022-10-17T05:12:48;3.03;;;1.90;;
20627;SDS011;10473;42.734;24.258;2022-10-17T05:15:18;5.30;;;2.60;;
20627;SDS011;10473;42.734;24.258;2022-10-17T05:17:47;3.63;;;3.00;;
20627;SDS011;10473;42.734;24.258;2022-10-17T05:20:16;3.67;;;2.50;;
20627;SDS011;10473;42.734;24.258;2022-10-17T05:22:44;3.93;;;3.00;;
20627;SDS011;10473;42.734;24.258;2022-10-17T05:25:11;3.90;;;2.70;;
20627;SDS011;10473;42.734;24.258;2022-10-17T05:27:39;5.20;;;2.70;;
20627;SDS011;10473;42.734;24.258;2022-10-17T05:30:08;2.23;;;1.97;;
20627;SDS011;10473;42.734;24.258;2022-10-17T05:32:37;2.63;;;1.97;;
20627;SDS011;10473;42.734;24.258;2022-10-17T05:35:08;3.03;;;1.87;;
20627;SDS011;10473;42.734;24.258;2022-10-17T05:37:37;10.93;;;4.53;;
20627;SDS011;10473;42.734;24.258;2022-10-17T05:40:06;4.00;;;2.83;;
20627;SDS011;10473;42.734;24.258;2022-10-17T05:42:34;3.67;;;2.80;;
20627;SDS011;10473;42.734;24.258;2022-10-17T05:45:02;6.67;;;3.37;;
20627;SDS011;10473;42.734;24.258;2022-10-17T05:47:31;3.83;;;2.57;;
20627;SDS011;10473;42.734;24.258;2022-10-17T05:49:59;4.90;;;3.13;;
20627;SDS011;10473;42.734;24.258;2022-10-17T05:52:34;2.87;;;2.47;;
20627;SDS011;10473;42.734;24.258;2022-10-17T05:55:14;3.33;;;2.70;;
20627;SDS011;10473;42.734;24.258;2022-10-17T05:57:43;2.40;;;1.70;;
20627;SDS011;10473;42.734;24.258;2022-10-17T06:00:15;4.50;;;2.27;;
20627;SDS011;10473;42.734;24.258;2022-10-17T06:02:51;3.13;;;2.20;;
20627;SDS011;10473;42.734;24.258;2022-10-17T06:05:19;4.90;;;2.13;;
20627;SDS011;10473;42.734;24.258;2022-10-17T06:07:48;1.50;;;1.20;;
20627;SDS011;10473;42.734;24.258;2022-10-17T06:10:18;1.90;;;1.30;;
20627;SDS011;10473;42.734;24.258;2022-10-17T06:12:46;4.57;;;2.20;;
20627;SDS011;10473;42.734;24.258;2022-10-17T06:15:14;2.70;;;1.77;;
20627;SDS011;10473;42.734;24.258;2022-10-17T06:17:46;3.83;;;1.93;;
20627;SDS011;10473;42.734;24.258;2022-10-17T06:20:15;3.67;;;2.30;;
20627;SDS011;10473;42.734;24.258;2022-10-17T06:22:42;1.00;;;1.00;;
20627;SDS011;10473;42.734;24.258;2022-10-17T06:25:17;2.10;;;1.50;;
20627;SDS011;10473;42.734;24.258;2022-10-17T06:27:45;3.37;;;1.53;;
20627;SDS011;10473;42.734;24.258;2022-10-17T06:30:13;2.93;;;2.50;;
20627;SDS011;10473;42.734;24.258;2022-10-17T06:32:41;2.13;;;1.87;;
20627;SDS011;10473;42.734;24.258;2022-10-17T06:35:10;3.60;;;2.07;;
20627;SDS011;10473;42.734;24.258;2022-10-17T06:37:40;4.90;;;1.30;;
20627;SDS011;10473;42.734;24.258;2022-10-17T06:40:09;1.63;;;1.13;;
20627;SDS011;10473;42.734;24.258;2022-10-17T06:42:42;0.90;;;0.70;;
20627;SDS011;10473;42.734;24.258;2022-10-17T06:45:47;1.47;;;0.73;;
20627;SDS011;10473;42.734;24.258;2022-10-17T06:48:29;1.23;;;1.13;;
20627;SDS011;10473;42.734;24.258;2022-10-17T06:51:13;1.30;;;1.13;;
20627;SDS011;10473;42.734;24.258;2022-10-17T06:53:48;10.40;;;5.30;;
20627;SDS011;10473;42.734;24.258;2022-10-17T06:56:41;3.27;;;1.60;;
20627;SDS011;10473;42.734;24.258;2022-10-17T06:59:22;2.70;;;1.67;;
20627;SDS011;10473;42.734;24.258;2022-10-17T07:01:56;3.10;;;2.03;;
20627;SDS011;10473;42.734;24.258;2022-10-17T07:04:24;2.20;;;1.70;;
20627;SDS011;10473;42.734;24.258;2022-10-17T07:06:53;1.60;;;1.50;;
20627;SDS011;10473;42.734;24.258;2022-10-17T07:09:22;1.83;;;1.17;;
20627;SDS011;10473;42.734;24.258;2022-10-17T07:11:51;1.13;;;0.90;;
20627;SDS011;10473;42.734;24.258;2022-10-17T07:14:19;0.97;;;0.80;;
20627;SDS011;10473;42.734;24.258;2022-10-17T07:16:49;1.03;;;1.03;;
20627;SDS011;10473;42.734;24.258;2022-10-17T07:19:19;1.20;;;1.10;;
20627;SDS011;10473;42.734;24.258;2022-10-17T07:21:48;1.50;;;1.10;;
20627;SDS011;10473;42.734;24.258;2022-10-17T07:24:16;1.30;;;0.90;;
20627;SDS011;10473;42.734;24.258;2022-10-17T07:26:48;2.80;;;1.43;;
20627;SDS011;10473;42.734;24.258;2022-10-17T07:29:16;2.70;;;1.50;;
20627;SDS011;10473;42.734;24.258;2022-10-17T07:31:53;5.97;;;2.70;;
20627;SDS011;10473;42.734;24.258;2022-10-17T07:34:21;2.50;;;2.03;;
20627;SDS011;10473;42.734;24.258;2022-10-17T07:36:53;1.43;;;1.33;;
20627;SDS011;10473;42.734;24.258;2022-10-17T07:39:20;1.60;;;1.50;;
20627;SDS011;10473;42.734;24.258;2022-10-17T07:41:48;1.70;;;1.20;;
20627;SDS011;10473;42.734;24.258;2022-10-17T07:44:17;1.13;;;0.80;;
20627;SDS011;10473;42.734;24.258;2022-10-17T07:46:48;1.73;;;1.57;;
20627;SDS011;10473;42.734;24.258;2022-10-17T07:49:18;0.83;;;0.80;;
20627;SDS011;10473;42.734;24.258;2022-10-17T07:51:46;1.20;;;1.07;;
20627;SDS011;10473;42.734;24.258;2022-10-17T07:54:14;1.37;;;1.20;;
20627;SDS011;10473;42.734;24.258;2022-10-17T07:56:42;0.87;;;0.83;;
20627;SDS011;10473;42.734;24.258;2022-10-17T07:59:15;1.07;;;0.83;;
20627;SDS011;10473;42.734;24.258;2022-10-17T08:01:43;0.70;;;0.70;;
20627;SDS011;10473;42.734;24.258;2022-10-17T08:04:11;1.03;;;0.93;;
20627;SDS011;10473;42.734;24.258;2022-10-17T08:06:40;1.33;;;1.20;;
20627;SDS011;10473;42.734;24.258;2022-10-17T08:09:08;1.67;;;0.87;;
20627;SDS011;10473;42.734;24.258;2022-10-17T08:11:35;0.70;;;0.70;;
20627;SDS011;10473;42.734;24.258;2022-10-17T08:14:03;0.83;;;0.83;;
20627;SDS011;10473;42.734;24.258;2022-10-17T08:16:31;1.20;;;1.10;;
20627;SDS011;10473;42.734;24.258;2022-10-17T08:18:59;1.20;;;0.90;;
20627;SDS011;10473;42.734;24.258;2022-10-17T08:21:27;1.67;;;1.13;;
20627;SDS011;10473;42.734;24.258;2022-10-17T08:23:56;1.40;;;1.20;;
20627;SDS011;10473;42.734;24.258;2022-10-17T08:26:24;3.30;;;1.57;;
20627;SDS011;10473;42.734;24.258;2022-10-17T08:28:52;0.93;;;0.93;;
20627;SDS011;10473;42.734;24.258;2022-10-17T08:31:19;0.93;;;0.80;;
20627;SDS011;10473;42.734;24.258;2022-10-17T08:33:48;1.20;;;0.97;;
20627;SDS011;10473;42.734;24.258;2022-10-17T08:36:17;1.43;;;1.33;;
20627;SDS011;10473;42.734;24.258;2022-10-17T08:38:46;1.67;;;1.20;;
20627;SDS011;10473;42.734;24.258;2022-10-17T08:41:18;0.70;;;0.60;;
20627;SDS011;10473;42.734;24.258;2022-10-17T08:44:05;0.73;;;0.73;;
20627;SDS011;10473;42.734;24.258;2022-10-17T08:46:42;1.30;;;1.20;;
20627;SDS011;10473;42.734;24.258;2022-10-17T08:49:14;0.87;;;0.80;;
20627;SDS011;10473;42.734;24.258;2022-10-17T08:51:48;1.17;;;1.07;;
20627;SDS011;10473;42.734;24.258;2022-10-17T08:54:21;1.50;;;1.00;;
20627;SDS011;10473;42.734;24.258;2022-10-17T08:57:11;1.00;;;0.90;;
20627;SDS011;10473;42.734;24.258;2022-10-17T08:59:40;2.53;;;1.43;;
20627;SDS011;10473;42.734;24.258;2022-10-17T09:05:17;1.00;;;0.93;;
20627;SDS011;10473;42.734;24.258;2022-10-17T09:08:06;0.67;;;0.67;;
20627;SDS011;10473;42.734;24.258;2022-10-17T09:10:46;0.60;;;0.60;;
20627;SDS011;10473;42.734;24.258;2022-10-17T09:13:31;0.40;;;0.40;;
20627;SDS011;10473;42.734;24.258;2022-10-17T09:16:13;0.57;;;0.50;;
20627;SDS011;10473;42.734;24.258;2022-10-17T09:18:55;0.77;;;0.60;;
20627;SDS011;10473;42.734;24.258;2022-10-17T09:21:30;0.70;;;0.50;;
20627;SDS011;10473;42.734;24.258;2022-10-17T09:24:08;0.80;;;0.40;;
20627;SDS011;10473;42.734;24.258;2022-10-17T09:26:40;1.10;;;1.00;;
20627;SDS011;10473;42.734;24.258;2022-10-17T09:29:13;1.53;;;1.20;;
20627;SDS011;10473;42.734;24.258;2022-10-17T09:31:47;0.60;;;0.60;;
20627;SDS011;10473;42.734;24.258;2022-10-17T09:34:19;1.00;;;0.80;;
20627;SDS011;10473;42.734;24.258;2022-10-17T09:36:48;0.65;;;0.60;;
20627;SDS011;10473;42.734;24.258;2022-10-17T09:39:18;0.70;;;0.70;;
20627;SDS011;10473;42.734;24.258;2022-10-17T09:41:50;0.80;;;0.60;;
20627;SDS011;10473;42.734;24.258;2022-10-17T09:44:22;0.70;;;0.70;;
20627;SDS011;10473;42.734;24.258;2022-10-17T09:46:59;0.98;;;0.77;;
20627;SDS011;10473;42.734;24.258;2022-10-17T09:49:37;0.70;;;0.70;;
20627;SDS011;10473;42.734;24.258;2022-10-17T09:52:09;0.70;;;0.70;;
20627;SDS011;10473;42.734;24.258;2022-10-17T09:54:41;0.90;;;0.90;;
20627;SDS011;10473;42.734;24.258;2022-10-17T09:57:14;0.85;;;0.82;;
20627;SDS011;10473;42.734;24.258;2022-10-17T09:59:46;0.90;;;0.90;;
20627;SDS011;10473;42.734;24.258;2022-10-17T10:02:22;1.10;;;0.80;;
20627;SDS011;10473;42.734;24.258;2022-10-17T10:04:52;1.80;;;1.08;;
20627;SDS011;10473;42.734;24.258;2022-10-17T10:07:21;0.88;;;0.88;;
20627;SDS011;10473;42.734;24.258;2022-10-17T10:09:50;1.65;;;0.90;;
20627;SDS011;10473;42.734;24.258;2022-10-17T10:12:19;0.68;;;0.60;;
20627;SDS011;10473;42.734;24.258;2022-10-17T10:14:50;0.60;;;0.60;;
20627;SDS011;10473;42.734;24.258;2022-10-17T10:17:28;0.90;;;0.85;;
20627;SDS011;10473;42.734;24.258;2022-10-17T10:20:03;1.10;;;1.00;;
20627;SDS011;10473;42.734;24.258;2022-10-17T10:25:51;0.55;;;0.55;;
20627;SDS011;10473;42.734;24.258;2022-10-17T10:28:24;0.60;;;0.60;;
20627;SDS011;10473;42.734;24.258;2022-10-17T10:30:56;0.60;;;0.60;;
20627;SDS011;10473;42.734;24.258;2022-10-17T10:33:26;0.85;;;0.80;;
20627;SDS011;10473;42.734;24.258;2022-10-17T10:35:56;0.60;;;0.60;;
20627;SDS011;10473;42.734;24.258;2022-10-17T10:38:26;2.05;;;0.90;;
20627;SDS011;10473;42.734;24.258;2022-10-17T10:40:55;0.88;;;0.70;;
20627;SDS011;10473;42.734;24.258;2022-10-17T10:43:30;0.85;;;0.75;;
20627;SDS011;10473;42.734;24.258;2022-10-17T10:46:02;0.60;;;0.60;;
20627;SDS011;10473;42.734;24.258;2022-10-17T10:48:33;0.50;;;0.50;;
20627;SDS011;10473;42.734;24.258;2022-10-17T10:51:02;1.20;;;0.80;;
20627;SDS011;10473;42.734;24.258;2022-10-17T10:53:37;0.82;;;0.65;;
20627;SDS011;10473;42.734;24.258;2022-10-17T10:56:13;1.10;;;0.90;;
20627;SDS011;10473;42.734;24.258;2022-10-17T10:58:47;0.60;;;0.60;;
20627;SDS011;10473;42.734;24.258;2022-10-17T11:01:23;0.70;;;0.70;;
20627;SDS011;10473;42.734;24.258;2022-10-17T11:04:05;0.82;;;0.75;;
20627;SDS011;10473;42.734;24.258;2022-10-17T11:06:41;0.98;;;0.80;;
20627;SDS011;10473;42.734;24.258;2022-10-17T11:09:22;1.95;;;0.50;;
20627;SDS011;10473;42.734;24.258;2022-10-17T11:11:57;1.08;;;0.73;;
20627;SDS011;10473;42.734;24.258;2022-10-17T11:14:33;0.60;;;0.60;;
20627;SDS011;10473;42.734;24.258;2022-10-17T11:17:11;1.10;;;1.00;;
20627;SDS011;10473;42.734;24.258;2022-10-17T11:19:47;1.20;;;1.10;;
20627;SDS011;10473;42.734;24.258;2022-10-17T11:22:24;1.47;;;0.77;;
20627;SDS011;10473;42.734;24.258;2022-10-17T11:24:55;1.33;;;0.80;;
20627;SDS011;10473;42.734;24.258;2022-10-17T11:27:26;0.70;;;0.70;;
20627;SDS011;10473;42.734;24.258;2022-10-17T11:29:56;1.10;;;0.90;;
20627;SDS011;10473;42.734;24.258;2022-10-17T11:32:27;1.43;;;0.57;;
20627;SDS011;10473;42.734;24.258;2022-10-17T11:35:02;1.23;;;0.80;;
20627;SDS011;10473;42.734;24.258;2022-10-17T11:37:33;1.07;;;0.80;;
20627;SDS011;10473;42.734;24.258;2022-10-17T11:40:05;0.83;;;0.70;;
20627;SDS011;10473;42.734;24.258;2022-10-17T11:42:44;1.13;;;0.70;;
20627;SDS011;10473;42.734;24.258;2022-10-17T11:45:17;1.00;;;0.60;;
20627;SDS011;10473;42.734;24.258;2022-10-17T11:47:50;1.57;;;1.10;;
20627;SDS011;10473;42.734;24.258;2022-10-17T11:50:23;0.67;;;0.60;;
20627;SDS011;10473;42.734;24.258;2022-10-17T11:52:55;0.50;;;0.50;;
20627;SDS011;10473;42.734;24.258;2022-10-17T11:55:27;0.90;;;0.70;;
20627;SDS011;10473;42.734;24.258;2022-10-17T11:57:59;1.20;;;0.60;;
20627;SDS011;10473;42.734;24.258;2022-10-17T12:00:42;0.97;;;0.77;;
20627;SDS011;10473;42.734;24.258;2022-10-17T12:03:24;0.60;;;0.60;;
20627;SDS011;10473;42.734;24.258;2022-10-17T12:06:02;1.63;;;0.70;;
20627;SDS011;10473;42.734;24.258;2022-10-17T12:08:39;1.10;;;0.90;;
20627;SDS011;10473;42.734;24.258;2022-10-17T12:11:14;0.77;;;0.77;;
20627;SDS011;10473;42.734;24.258;2022-10-17T12:13:52;0.67;;;0.67;;
20627;SDS011;10473;42.734;24.258;2022-10-17T12:19:22;0.70;;;0.40;;
20627;SDS011;10473;42.734;24.258;2022-10-17T12:22:05;1.10;;;0.50;;
20627;SDS011;10473;42.734;24.258;2022-10-17T12:24:51;0.73;;;0.73;;
20627;SDS011;10473;42.734;24.258;2022-10-17T12:27:31;0.70;;;0.67;;
20627;SDS011;10473;42.734;24.258;2022-10-17T12:30:03;1.40;;;0.63;;
20627;SDS011;10473;42.734;24.258;2022-10-17T12:32:33;0.60;;;0.60;;
20627;SDS011;10473;42.734;24.258;2022-10-17T12:35:04;0.50;;;0.43;;
20627;SDS011;10473;42.734;24.258;2022-10-17T12:38:01;0.67;;;0.60;;
20627;SDS011;10473;42.734;24.258;2022-10-17T12:40:46;0.77;;;0.73;;
20627;SDS011;10473;42.734;24.258;2022-10-17T12:49:38;0.90;;;0.80;;
20627;SDS011;10473;42.734;24.258;2022-10-17T12:55:18;1.03;;;0.80;;
20627;SDS011;10473;42.734;24.258;2022-10-17T12:57:54;1.00;;;0.70;;
20627;SDS011;10473;42.734;24.258;2022-10-17T13:00:46;0.67;;;0.67;;
20627;SDS011;10473;42.734;24.258;2022-10-17T13:03:18;1.33;;;1.20;;
20627;SDS011;10473;42.734;24.258;2022-10-17T13:05:49;1.03;;;0.87;;
20627;SDS011;10473;42.734;24.258;2022-10-17T13:08:21;0.73;;;0.73;;
20627;SDS011;10473;42.734;24.258;2022-10-17T13:10:53;0.97;;;0.80;;
20627;SDS011;10473;42.734;24.258;2022-10-17T13:13:22;0.60;;;0.60;;
20627;SDS011;10473;42.734;24.258;2022-10-17T13:15:58;0.93;;;0.40;;
20627;SDS011;10473;42.734;24.258;2022-10-17T13:18:27;1.07;;;0.90;;
20627;SDS011;10473;42.734;24.258;2022-10-17T13:20:56;0.80;;;0.67;;
20627;SDS011;10473;42.734;24.258;2022-10-17T13:23:27;0.80;;;0.80;;
20627;SDS011;10473;42.734;24.258;2022-10-17T13:26:14;1.27;;;0.97;;
20627;SDS011;10473;42.734;24.258;2022-10-17T13:28:45;0.93;;;0.80;;
20627;SDS011;10473;42.734;24.258;2022-10-17T13:31:25;0.90;;;0.90;;
20627;SDS011;10473;42.734;24.258;2022-10-17T13:33:55;0.73;;;0.73;;
20627;SDS011;10473;42.734;24.258;2022-10-17T13:36:24;1.10;;;0.90;;
20627;SDS011;10473;42.734;24.258;2022-10-17T13:38:52;0.87;;;0.63;;
20627;SDS011;10473;42.734;24.258;2022-10-17T13:41:23;3.47;;;0.97;;
20627;SDS011;10473;42.734;24.258;2022-10-17T13:43:55;1.03;;;0.80;;
20627;SDS011;10473;42.734;24.258;2022-10-17T13:46:25;0.87;;;0.87;;
20627;SDS011;10473;42.734;24.258;2022-10-17T13:48:55;1.40;;;1.00;;
20627;SDS011;10473;42.734;24.258;2022-10-17T13:51:24;0.83;;;0.80;;
20627;SDS011;10473;42.734;24.258;2022-10-17T13:53:53;1.70;;;1.60;;
20627;SDS011;10473;42.734;24.258;2022-10-17T13:56:23;2.73;;;2.23;;
20627;SDS011;10473;42.734;24.258;2022-10-17T13:58:53;0.93;;;0.90;;
20627;SDS011;10473;42.734;24.258;2022-10-17T14:01:23;1.80;;;1.00;;
20627;SDS011;10473;42.734;24.258;2022-10-17T14:03:53;1.10;;;0.87;;
20627;SDS011;10473;42.734;24.258;2022-10-17T14:06:21;1.63;;;0.80;;
20627;SDS011;10473;42.734;24.258;2022-10-17T14:08:52;1.00;;;0.73;;
20627;SDS011;10473;42.734;24.258;2022-10-17T14:11:26;1.20;;;0.90;;
20627;SDS011;10473;42.734;24.258;2022-10-17T14:13:59;1.10;;;0.67;;
20627;SDS011;10473;42.734;24.258;2022-10-17T14:16:32;1.77;;;1.10;;
20627;SDS011;10473;42.734;24.258;2022-10-17T14:19:03;1.47;;;0.83;;
20627;SDS011;10473;42.734;24.258;2022-10-17T14:21:32;0.90;;;0.63;;
20627;SDS011;10473;42.734;24.258;2022-10-17T14:24:14;0.93;;;0.80;;
20627;SDS011;10473;42.734;24.258;2022-10-17T14:26:54;1.10;;;1.00;;
20627;SDS011;10473;42.734;24.258;2022-10-17T14:29:25;0.60;;;0.60;;
20627;SDS011;10473;42.734;24.258;2022-10-17T14:31:57;1.23;;;0.63;;
20627;SDS011;10473;42.734;24.258;2022-10-17T14:34:29;1.27;;;0.93;;
20627;SDS011;10473;42.734;24.258;2022-10-17T14:36:59;0.60;;;0.60;;
20627;SDS011;10473;42.734;24.258;2022-10-17T14:39:28;0.83;;;0.83;;
20627;SDS011;10473;42.734;24.258;2022-10-17T14:41:57;0.77;;;0.60;;
20627;SDS011;10473;42.734;24.258;2022-10-17T14:44:26;1.10;;;0.80;;
20627;SDS011;10473;42.734;24.258;2022-10-17T14:46:57;0.77;;;0.77;;
20627;SDS011;10473;42.734;24.258;2022-10-17T14:49:30;1.30;;;1.00;;
20627;SDS011;10473;42.734;24.258;2022-10-17T14:54:57;1.03;;;0.90;;
20627;SDS011;10473;42.734;24.258;2022-10-17T14:57:38;0.83;;;0.80;;
20627;SDS011;10473;42.734;24.258;2022-10-17T15:00:11;1.23;;;0.93;;
20627;SDS011;10473;42.734;24.258;2022-10-17T15:02:41;0.93;;;0.93;;
20627;SDS011;10473;42.734;24.258;2022-10-17T15:05:09;1.60;;;1.10;;
20627;SDS011;10473;42.734;24.258;2022-10-17T15:07:37;1.83;;;1.47;;
20627;SDS011;10473;42.734;24.258;2022-10-17T15:10:05;1.67;;;1.27;;
20627;SDS011;10473;42.734;24.258;2022-10-17T15:12:38;1.10;;;1.00;;
20627;SDS011;10473;42.734;24.258;2022-10-17T15:15:06;2.50;;;1.10;;
20627;SDS011;10473;42.734;24.258;2022-10-17T15:17:34;1.33;;;1.20;;
20627;SDS011;10473;42.734;24.258;2022-10-17T15:20:02;1.23;;;0.70;;
20627;SDS011;10473;42.734;24.258;2022-10-17T15:22:38;1.50;;;1.20;;
20627;SDS011;10473;42.734;24.258;2022-10-17T15:25:06;1.27;;;1.17;;
20627;SDS011;10473;42.734;24.258;2022-10-17T15:27:34;1.47;;;1.37;;